createdAt,value
2018-04-10T00:01:35.631Z,14.07
2018-04-10T00:04:03.111Z,14.00
2018-04-10T00:06:30.569Z,13.92
2018-04-10T00:08:58.064Z,13.91
2018-04-10T00:11:25.581Z,13.89
2018-04-10T00:13:53.032Z,13.89
2018-04-10T00:16:20.502Z,13.90
2018-04-10T00:18:47.999Z,13.87
2018-04-10T00:21:15.496Z,13.85
2018-04-10T00:23:42.957Z,13.81
2018-04-10T00:26:10.416Z,13.78
2018-04-10T00:28:37.919Z,13.78
2018-04-10T00:31:05.392Z,13.81
2018-04-10T00:33:32.850Z,13.83
2018-04-10T00:36:00.335Z,13.83
2018-04-10T00:38:27.829Z,13.83
2018-04-10T00:40:55.288Z,13.82
2018-04-10T00:43:22.764Z,13.82
2018-04-10T00:45:50.340Z,13.85
2018-04-10T00:48:17.792Z,13.88
2018-04-10T00:50:45.272Z,13.90
2018-04-10T00:53:24.540Z,13.96
2018-04-10T00:55:52.017Z,13.94
2018-04-10T00:58:19.482Z,13.92
2018-04-10T01:00:47.000Z,13.91
2018-04-10T01:03:14.456Z,13.85
2018-04-10T01:05:41.923Z,13.82
2018-04-10T01:08:09.405Z,13.82
2018-04-10T01:10:36.857Z,13.78
2018-04-10T01:13:04.337Z,13.74
2018-04-10T01:15:31.843Z,13.72
2018-04-10T01:17:59.340Z,13.69
2018-04-10T01:20:26.799Z,13.66
2018-04-10T01:22:54.328Z,13.64
2018-04-10T01:25:21.921Z,13.61
2018-04-10T01:27:49.391Z,13.60
2018-04-10T01:30:16.884Z,13.60
2018-04-10T01:32:44.374Z,13.59
2018-04-10T01:35:11.842Z,13.61
2018-04-10T01:37:39.348Z,13.62
2018-04-10T01:40:06.871Z,13.62
2018-04-10T01:42:34.428Z,13.67
2018-04-10T01:45:01.908Z,13.66
2018-04-10T01:47:29.371Z,13.64
2018-04-10T01:49:56.826Z,13.61
2018-04-10T01:52:24.303Z,13.58
2018-04-10T01:54:51.924Z,13.53
2018-04-10T01:57:19.404Z,13.52
2018-04-10T01:59:46.868Z,13.50
2018-04-10T02:02:14.507Z,13.50
2018-04-10T02:04:42.057Z,13.50
2018-04-10T02:07:09.532Z,13.50
2018-04-10T02:09:37.024Z,13.48
2018-04-10T02:12:04.543Z,13.46
2018-04-10T02:14:32.055Z,13.46
2018-04-10T02:16:59.536Z,13.48
2018-04-10T02:19:27.096Z,13.46
2018-04-10T02:21:54.552Z,13.42
2018-04-10T02:24:22.129Z,13.40
2018-04-10T02:26:49.588Z,13.36
2018-04-10T02:29:17.044Z,13.34
2018-04-10T02:31:44.593Z,13.34
2018-04-10T02:34:12.052Z,13.29
2018-04-10T02:36:39.507Z,13.28
2018-04-10T02:39:06.984Z,13.26
2018-04-10T02:41:34.440Z,13.24
2018-04-10T02:44:01.987Z,13.17
2018-04-10T02:46:29.540Z,13.12
2018-04-10T02:48:57.017Z,13.09
2018-04-10T02:51:24.481Z,13.05
2018-04-10T02:53:51.959Z,13.07
2018-04-10T02:56:19.456Z,13.06
2018-04-10T02:58:46.924Z,13.03
2018-04-10T03:01:14.384Z,13.02
2018-04-10T03:03:41.897Z,12.97
2018-04-10T03:06:09.408Z,12.95
2018-04-10T03:08:36.859Z,12.94
2018-04-10T03:11:04.378Z,12.92
2018-04-10T03:13:31.884Z,12.89
2018-04-10T03:15:59.437Z,12.87
2018-04-10T03:18:26.924Z,12.83
2018-04-10T03:20:54.379Z,12.84
2018-04-10T03:23:21.869Z,12.79
2018-04-10T03:25:49.376Z,12.75
2018-04-10T03:28:16.827Z,12.69
2018-04-10T03:30:44.335Z,12.69
2018-04-10T03:33:11.794Z,12.64
2018-04-10T03:35:39.347Z,12.62
2018-04-10T03:38:06.865Z,12.62
2018-04-10T03:40:34.331Z,12.61
2018-04-10T03:43:01.789Z,12.57
2018-04-10T03:45:29.310Z,12.55
2018-04-10T03:47:56.927Z,12.54
2018-04-10T03:50:24.361Z,12.53
2018-04-10T03:52:51.832Z,12.51
2018-04-10T03:55:19.292Z,12.46
2018-04-10T03:57:46.751Z,12.45
2018-04-10T04:00:14.240Z,12.45
2018-04-10T04:02:41.692Z,12.45
2018-04-10T04:05:09.148Z,12.42
2018-04-10T04:07:36.655Z,12.42
2018-04-10T04:12:54.517Z,12.47
2018-04-10T04:15:21.978Z,12.46
2018-04-10T04:17:49.440Z,12.45
2018-04-10T04:20:28.788Z,12.45
2018-04-10T04:22:56.247Z,12.46
2018-04-10T04:25:23.695Z,12.45
2018-04-10T04:27:51.237Z,12.47
2018-04-10T04:30:18.697Z,12.50
2018-04-10T04:32:46.160Z,12.52
2018-04-10T04:35:13.656Z,12.53
2018-04-10T04:37:41.176Z,12.52
2018-04-10T04:40:08.632Z,12.53
2018-04-10T04:42:36.099Z,12.55
2018-04-10T04:45:03.625Z,12.57
2018-04-10T04:47:31.095Z,12.64
2018-04-10T04:50:03.571Z,12.62
2018-04-10T04:52:31.032Z,12.68
2018-04-10T04:54:58.504Z,12.77
2018-04-10T04:57:25.970Z,12.80
2018-04-10T04:59:53.516Z,12.82
2018-04-10T05:02:20.972Z,12.79
2018-04-10T05:04:48.563Z,12.84
2018-04-10T05:07:16.068Z,12.82
2018-04-10T05:09:43.529Z,12.84
2018-04-10T05:12:11.013Z,12.90
2018-04-10T05:14:38.464Z,12.86
2018-04-10T05:17:05.921Z,12.90
2018-04-10T05:19:33.384Z,12.99
2018-04-10T05:22:00.862Z,12.99
2018-04-10T05:24:28.387Z,12.98
2018-04-10T05:26:55.884Z,12.95
2018-04-10T05:29:23.370Z,13.00
2018-04-10T05:31:50.898Z,13.02
2018-04-10T05:34:18.421Z,13.01
2018-04-10T05:36:45.902Z,13.07
2018-04-10T05:39:13.484Z,13.22
2018-04-10T05:41:41.102Z,13.39
2018-04-10T05:44:08.698Z,13.32
2018-04-10T05:46:36.162Z,13.26
2018-04-10T05:49:03.726Z,13.34
2018-04-10T05:51:31.211Z,13.36
2018-04-10T05:53:58.664Z,13.42
2018-04-10T05:56:26.124Z,13.46
2018-04-10T05:58:53.638Z,13.47
2018-04-10T06:01:21.155Z,13.51
2018-04-10T06:03:48.612Z,13.56
2018-04-10T06:06:16.214Z,13.63
2018-04-10T06:08:43.732Z,13.70
2018-04-10T06:11:11.200Z,13.78
2018-04-10T06:13:38.662Z,13.94
2018-04-10T06:16:06.157Z,14.07
2018-04-10T06:18:33.620Z,14.10
2018-04-10T06:21:01.084Z,14.14
2018-04-10T06:23:28.559Z,14.13
2018-04-10T06:25:56.025Z,14.14
2018-04-10T06:28:23.597Z,14.25
2018-04-10T06:30:51.090Z,14.41
2018-04-10T06:33:18.570Z,14.57
2018-04-10T06:35:46.040Z,14.69
2018-04-10T06:38:13.618Z,14.67
2018-04-10T06:40:41.181Z,14.73
2018-04-10T06:43:08.640Z,14.68
2018-04-10T06:45:36.231Z,14.66
2018-04-10T06:48:03.760Z,14.82
2018-04-10T06:50:31.212Z,15.10
2018-04-10T06:52:58.828Z,15.14
2018-04-10T06:55:26.380Z,15.04
2018-04-10T06:57:53.940Z,15.21
2018-04-10T07:00:21.430Z,15.24
2018-04-10T07:02:48.899Z,15.18
2018-04-10T07:05:16.365Z,15.17
2018-04-10T07:07:43.837Z,15.29
2018-04-10T07:10:11.308Z,15.38
2018-04-10T07:12:38.780Z,15.50
2018-04-10T07:15:06.240Z,15.65
2018-04-10T07:17:33.762Z,15.75
2018-04-10T07:20:01.223Z,15.78
2018-04-10T07:22:28.697Z,15.84
2018-04-10T07:24:56.333Z,15.99
2018-04-10T07:27:23.897Z,16.13
2018-04-10T07:29:51.424Z,16.44
2018-04-10T07:32:18.909Z,16.68
2018-04-10T07:34:46.395Z,16.91
2018-04-10T07:37:13.939Z,17.06
2018-04-10T07:39:41.416Z,17.20
2018-04-10T07:42:08.920Z,17.22
2018-04-10T07:44:36.374Z,17.40
2018-04-10T07:47:03.853Z,17.59
2018-04-10T07:49:31.344Z,17.70
2018-04-10T07:51:58.804Z,17.86
2018-04-10T07:54:26.397Z,17.95
2018-04-10T07:56:53.882Z,17.76
2018-04-10T07:59:21.359Z,17.74
2018-04-10T08:01:48.959Z,17.60
2018-04-10T08:04:16.480Z,17.60
2018-04-10T08:06:43.936Z,17.47
2018-04-10T08:09:11.389Z,17.41
2018-04-10T08:11:38.867Z,17.42
2018-04-10T08:14:06.321Z,17.47
2018-04-10T08:16:33.803Z,17.61
2018-04-10T08:19:01.265Z,17.71
2018-04-10T08:21:28.738Z,17.88
2018-04-10T08:23:56.371Z,18.07
2018-04-10T08:26:23.833Z,18.43
2018-04-10T08:28:51.341Z,18.70
2018-04-10T08:31:18.823Z,18.89
2018-04-10T08:33:46.280Z,19.10
2018-04-10T08:36:13.755Z,19.19
2018-04-10T08:38:41.245Z,18.93
2018-04-10T08:41:08.704Z,18.61
2018-04-10T08:43:36.166Z,18.44
2018-04-10T08:46:03.656Z,18.51
2018-04-10T08:48:31.115Z,18.64
2018-04-10T08:50:58.655Z,18.80
2018-04-10T08:53:26.160Z,18.91
2018-04-10T08:55:53.616Z,19.09
2018-04-10T08:58:21.083Z,19.22
2018-04-10T09:00:48.556Z,19.51
2018-04-10T09:03:16.013Z,19.49
2018-04-10T09:05:43.509Z,19.44
2018-04-10T09:08:10.982Z,19.43
2018-04-10T09:10:38.432Z,19.57
2018-04-10T09:13:06.027Z,19.70
2018-04-10T09:15:33.497Z,19.69
2018-04-10T09:18:00.957Z,19.65
2018-04-10T09:20:28.507Z,19.87
2018-04-10T09:22:56.057Z,19.83
2018-04-10T09:25:23.593Z,19.93
2018-04-10T09:27:51.088Z,20.35
2018-04-10T09:30:18.575Z,20.60
2018-04-10T09:32:46.061Z,20.43
2018-04-10T09:35:13.560Z,20.37
2018-04-10T09:37:41.020Z,20.66
2018-04-10T09:40:08.503Z,20.59
2018-04-10T09:42:35.984Z,20.70
2018-04-10T09:45:03.465Z,20.93
2018-04-10T09:47:30.965Z,20.87
2018-04-10T09:49:58.538Z,20.75
2018-04-10T09:52:26.013Z,20.78
2018-04-10T09:54:53.472Z,20.82
2018-04-10T09:57:21.044Z,20.86
2018-04-10T09:59:48.513Z,20.84
2018-04-10T10:02:15.968Z,21.16
2018-04-10T10:04:43.449Z,21.63
2018-04-10T10:07:12.849Z,21.95
2018-04-10T10:09:40.316Z,21.83
2018-04-10T10:12:07.808Z,21.73
2018-04-10T10:14:35.378Z,21.85
2018-04-10T10:17:02.840Z,21.80
2018-04-10T10:19:30.321Z,21.57
2018-04-10T10:21:57.772Z,21.56
2018-04-10T10:24:25.476Z,21.57
2018-04-10T10:26:52.975Z,21.84
2018-04-10T10:29:20.460Z,21.97
2018-04-10T10:31:47.948Z,22.35
2018-04-10T10:34:15.449Z,22.65
2018-04-10T10:36:42.947Z,22.79
2018-04-10T10:39:10.497Z,22.98
2018-04-10T10:41:38.065Z,22.97
2018-04-10T10:44:05.548Z,23.05
2018-04-10T10:46:33.030Z,22.84
2018-04-10T10:49:00.504Z,22.71
2018-04-10T10:51:27.983Z,22.71
2018-04-10T10:53:55.464Z,22.67
2018-04-10T10:56:22.933Z,22.54
2018-04-10T10:58:50.386Z,22.48
2018-04-10T11:01:17.874Z,22.67
2018-04-10T11:03:45.348Z,22.66
2018-04-10T11:06:12.844Z,22.71
2018-04-10T11:08:40.587Z,22.86
2018-04-10T11:11:08.165Z,22.99
2018-04-10T11:13:35.626Z,22.99
2018-04-10T11:16:03.155Z,23.29
2018-04-10T11:18:30.608Z,23.58
2018-04-10T11:20:58.111Z,23.55
2018-04-10T11:23:25.572Z,23.63
2018-04-10T11:25:53.028Z,23.75
2018-04-10T11:28:20.504Z,23.83
2018-04-10T11:30:48.130Z,23.85
2018-04-10T11:33:15.600Z,23.96
2018-04-10T11:35:43.080Z,23.74
2018-04-10T11:38:10.559Z,23.55
2018-04-10T11:40:38.028Z,23.74
2018-04-10T11:43:05.500Z,23.93
2018-04-10T11:45:33.008Z,23.79
2018-04-10T11:48:00.535Z,23.53
2018-04-10T11:50:28.041Z,23.50
2018-04-10T11:52:55.520Z,23.66
2018-04-10T11:55:22.982Z,23.66
2018-04-10T11:57:50.465Z,23.68
2018-04-10T12:00:17.956Z,23.79
2018-04-10T12:02:45.460Z,23.89
2018-04-10T12:05:12.938Z,23.66
2018-04-10T12:07:40.474Z,23.83
2018-04-10T12:10:07.948Z,23.80
2018-04-10T12:12:35.643Z,23.90
2018-04-10T12:15:03.134Z,23.74
2018-04-10T12:17:30.626Z,23.77
2018-04-10T12:19:58.092Z,23.71
2018-04-10T12:22:25.584Z,24.00
2018-04-10T12:24:53.056Z,24.35
2018-04-10T12:27:20.571Z,24.32
2018-04-10T12:29:48.075Z,24.26
2018-04-10T12:32:15.527Z,24.45
2018-04-10T12:34:42.991Z,24.62
2018-04-10T12:37:10.464Z,24.48
2018-04-10T12:39:38.005Z,24.15
2018-04-10T12:42:05.471Z,24.15
2018-04-10T12:44:32.960Z,24.17
2018-04-10T12:47:00.480Z,23.99
2018-04-10T12:49:27.946Z,23.96
2018-04-10T12:51:55.425Z,24.06
2018-04-10T12:54:22.882Z,24.21
2018-04-10T12:56:50.420Z,24.27
2018-04-10T12:59:17.927Z,24.40
2018-04-10T13:01:45.397Z,24.43
2018-04-10T13:04:12.849Z,24.57
2018-04-10T13:06:40.325Z,24.49
2018-04-10T13:09:07.828Z,24.68
2018-04-10T13:11:35.340Z,24.60
2018-04-10T13:14:02.884Z,24.61
2018-04-10T13:16:30.332Z,24.60
2018-04-10T13:18:57.827Z,24.84
2018-04-10T13:21:25.387Z,25.04
2018-04-10T13:23:52.851Z,24.70
2018-04-10T13:26:20.411Z,24.51
2018-04-10T13:28:47.880Z,24.40
2018-04-10T13:31:15.346Z,24.36
2018-04-10T13:33:42.921Z,24.53
2018-04-10T13:36:10.412Z,24.48
2018-04-10T13:38:37.868Z,24.51
2018-04-10T13:41:05.347Z,24.40
2018-04-10T13:43:32.848Z,24.39
2018-04-10T13:46:00.336Z,24.40
2018-04-10T13:48:27.791Z,24.42
2018-04-10T13:50:55.285Z,24.55
2018-04-10T13:53:22.872Z,24.84
2018-04-10T13:55:50.363Z,24.91
2018-04-10T13:58:17.956Z,24.82
2018-04-10T14:00:45.432Z,24.78
2018-04-10T14:03:12.947Z,24.92
2018-04-10T14:05:40.460Z,25.10
2018-04-10T14:08:07.936Z,25.32
2018-04-10T14:10:35.416Z,25.02
2018-04-10T14:13:03.062Z,24.79
2018-04-10T14:15:30.535Z,24.85
2018-04-10T14:17:58.703Z,24.89
2018-04-10T14:20:26.176Z,25.09
2018-04-10T14:22:53.688Z,25.37
2018-04-10T14:25:21.184Z,25.48
2018-04-10T14:27:48.643Z,25.60
2018-04-10T14:30:16.111Z,25.26
2018-04-10T14:32:43.636Z,25.17
2018-04-10T14:35:11.117Z,25.15
2018-04-10T14:37:38.573Z,25.03
2018-04-10T14:40:06.052Z,25.06
2018-04-10T14:42:33.522Z,25.14
2018-04-10T14:45:01.027Z,25.30
2018-04-10T14:47:28.598Z,25.47
2018-04-10T14:49:56.130Z,25.50
2018-04-10T14:52:23.593Z,25.61
2018-04-10T14:54:51.159Z,25.65
2018-04-10T14:57:18.619Z,25.73
2018-04-10T14:59:46.083Z,25.77
2018-04-10T15:02:13.640Z,25.55
2018-04-10T15:04:41.136Z,25.26
2018-04-10T15:07:08.604Z,25.12
2018-04-10T15:09:36.060Z,25.21
2018-04-10T15:12:03.588Z,25.39
2018-04-10T15:14:31.073Z,25.34
2018-04-10T15:16:58.565Z,25.24
2018-04-10T15:19:26.050Z,24.81
2018-04-10T15:21:53.528Z,24.58
2018-04-10T15:24:21.005Z,24.50
2018-04-10T15:26:48.469Z,24.51
2018-04-10T15:29:15.992Z,24.57
2018-04-10T15:31:43.576Z,24.56
2018-04-10T15:34:11.032Z,24.60
2018-04-10T15:36:38.488Z,24.74
2018-04-10T15:39:06.937Z,24.81
2018-04-10T15:41:34.396Z,24.90
2018-04-10T15:44:01.941Z,24.97
2018-04-10T15:46:29.436Z,24.96
2018-04-10T15:48:56.887Z,25.70
2018-04-10T15:51:24.339Z,26.31
2018-04-10T15:53:51.824Z,26.63
2018-04-10T15:56:19.284Z,26.77
2018-04-10T15:58:46.840Z,26.63
2018-04-10T16:01:14.346Z,26.77
2018-04-10T16:03:41.800Z,26.80
2018-04-10T16:06:09.258Z,26.86
2018-04-10T16:08:36.732Z,26.91
2018-04-10T16:11:04.194Z,26.91
2018-04-10T16:13:31.648Z,26.67
2018-04-10T16:15:59.133Z,26.52
2018-04-10T16:18:26.594Z,26.52
2018-04-10T16:20:54.054Z,26.48
2018-04-10T16:23:21.541Z,26.54
2018-04-10T16:25:49.004Z,26.53
2018-04-10T16:28:16.458Z,26.46
2018-04-10T16:30:43.944Z,26.50
2018-04-10T16:33:11.481Z,26.74
2018-04-10T16:35:38.950Z,26.33
2018-04-10T16:38:06.436Z,25.92
2018-04-10T16:40:33.925Z,25.89
2018-04-10T16:43:01.427Z,25.72
2018-04-10T16:45:28.949Z,25.63
2018-04-10T16:47:56.442Z,25.64
2018-04-10T16:50:24.114Z,25.44
2018-04-10T16:52:51.622Z,24.95
2018-04-10T16:55:19.100Z,24.42
2018-04-10T16:57:46.633Z,24.07
2018-04-10T17:00:14.075Z,23.87
2018-04-10T17:02:41.548Z,23.71
2018-04-10T17:05:09.004Z,23.55
2018-04-10T17:07:36.471Z,23.47
2018-04-10T17:10:03.976Z,23.35
2018-04-10T17:12:31.485Z,23.25
2018-04-10T17:14:58.903Z,23.14
2018-04-10T17:17:26.411Z,23.03
2018-04-10T17:19:53.865Z,22.97
2018-04-10T17:22:21.423Z,22.90
2018-04-10T17:24:48.936Z,22.82
2018-04-10T17:27:16.425Z,22.73
2018-04-10T17:29:43.897Z,22.64
2018-04-10T17:32:11.394Z,22.56
2018-04-10T17:34:38.851Z,22.51
2018-04-10T17:37:06.396Z,22.41
2018-04-10T17:39:33.937Z,22.36
2018-04-10T17:42:01.407Z,22.30
2018-04-10T17:44:28.868Z,22.15
2018-04-10T17:46:56.347Z,22.01
2018-04-10T17:49:23.806Z,21.92
2018-04-10T17:51:51.307Z,21.85
2018-04-10T17:54:18.868Z,21.80
2018-04-10T17:56:46.311Z,21.72
2018-04-10T17:59:13.768Z,21.69
2018-04-10T18:01:41.255Z,21.70
2018-04-10T18:04:08.707Z,21.58
2018-04-10T18:06:36.175Z,21.49
2018-04-10T18:09:03.649Z,21.40
2018-04-10T18:11:31.129Z,21.34
2018-04-10T18:13:58.625Z,21.28
2018-04-10T18:16:26.197Z,21.20
2018-04-10T18:18:53.681Z,21.18
2018-04-10T18:21:21.160Z,21.12
2018-04-10T18:23:48.663Z,21.08
2018-04-10T18:26:16.129Z,21.05
2018-04-10T18:28:43.603Z,20.97
2018-04-10T18:31:11.134Z,20.90
2018-04-10T18:33:38.589Z,20.87
2018-04-10T18:36:06.095Z,20.87
2018-04-10T18:38:33.582Z,20.81
2018-04-10T18:41:01.067Z,20.82
2018-04-10T18:43:28.538Z,20.85
2018-04-10T18:45:56.024Z,20.82
2018-04-10T18:48:23.561Z,20.81
2018-04-10T18:50:51.037Z,20.75
2018-04-10T18:53:18.557Z,20.71
2018-04-10T18:55:46.040Z,20.62
2018-04-10T18:58:13.556Z,20.54
2018-04-10T19:00:40.997Z,20.37
2018-04-10T19:03:08.483Z,20.04
2018-04-10T19:05:35.992Z,19.77
2018-04-10T19:08:03.462Z,19.51
2018-04-10T19:10:30.964Z,19.18
2018-04-10T19:12:58.436Z,18.88
2018-04-10T19:15:25.893Z,18.61
2018-04-10T19:17:53.424Z,18.44
2018-04-10T19:20:20.932Z,18.24
2018-04-10T19:22:48.726Z,18.02
2018-04-10T19:25:16.260Z,17.86
2018-04-10T19:27:43.736Z,17.67
2018-04-10T19:30:11.208Z,17.51
2018-04-10T19:32:38.749Z,17.39
2018-04-10T19:35:06.310Z,17.31
2018-04-10T19:37:33.868Z,17.19
2018-04-10T19:40:01.396Z,17.08
2018-04-10T19:42:28.868Z,16.95
2018-04-10T19:44:56.550Z,16.83
2018-04-10T19:47:24.108Z,16.79
2018-04-10T19:49:51.581Z,16.73
2018-04-10T19:52:19.096Z,16.65
2018-04-10T19:54:46.614Z,16.55
2018-04-10T19:57:14.134Z,16.48
2018-04-10T19:59:41.604Z,16.47
2018-04-10T20:02:09.225Z,16.35
2018-04-10T20:04:36.787Z,16.26
2018-04-10T20:07:04.493Z,16.19
2018-04-10T20:09:32.090Z,16.12
2018-04-10T20:11:59.564Z,16.04
2018-04-10T20:14:27.147Z,15.97
2018-04-10T20:16:54.727Z,15.91
2018-04-10T20:19:22.195Z,15.86
2018-04-10T20:21:49.717Z,15.81
2018-04-10T20:24:17.207Z,15.76
2018-04-10T20:26:44.760Z,15.75
2018-04-10T20:29:12.224Z,15.72
2018-04-10T20:31:39.720Z,15.73
2018-04-10T20:34:07.196Z,15.69
2018-04-10T20:36:34.813Z,15.64
2018-04-10T20:39:02.304Z,15.64
2018-04-10T20:41:29.768Z,15.61
2018-04-10T20:43:57.317Z,15.55
2018-04-10T20:46:24.997Z,15.56
2018-04-10T20:48:52.470Z,15.57
2018-04-10T20:51:19.933Z,15.55
2018-04-10T20:53:47.473Z,15.51
2018-04-10T20:56:14.933Z,15.49
2018-04-10T20:58:42.392Z,15.44
2018-04-10T21:01:09.932Z,15.35
2018-04-10T21:03:37.408Z,15.29
2018-04-10T21:06:04.860Z,15.26
2018-04-10T21:08:32.361Z,15.17
2018-04-10T21:10:59.820Z,15.10
2018-04-10T21:13:27.312Z,15.06
2018-04-10T21:15:54.792Z,14.96
2018-04-10T21:18:22.248Z,14.87
2018-04-10T21:20:49.836Z,14.85
2018-04-10T21:23:17.323Z,14.86
2018-04-10T21:25:44.831Z,14.83
2018-04-10T21:28:12.266Z,14.83
2018-04-10T21:30:39.759Z,14.83
2018-04-10T21:33:07.216Z,14.81
2018-04-10T21:35:34.680Z,14.80
2018-04-10T21:38:02.170Z,14.79
2018-04-10T21:40:29.632Z,14.80
2018-04-10T21:43:02.839Z,14.85
2018-04-10T21:45:30.320Z,14.89
2018-04-10T21:47:57.810Z,14.89
2018-04-10T21:50:25.308Z,14.93
2018-04-10T21:52:52.768Z,14.91
2018-04-10T21:55:20.232Z,14.89
2018-04-10T21:57:47.716Z,14.89
2018-04-10T22:00:15.189Z,14.86
2018-04-10T22:02:42.668Z,14.86
2018-04-10T22:05:10.155Z,14.82
2018-04-10T22:07:37.627Z,14.76
2018-04-10T22:10:05.089Z,14.78
2018-04-10T22:12:32.589Z,14.75
2018-04-10T22:15:00.055Z,14.77
2018-04-10T22:17:27.561Z,14.74
2018-04-10T22:19:55.056Z,14.72
2018-04-10T22:22:22.540Z,14.78
2018-04-10T22:24:50.032Z,14.78
2018-04-10T22:27:17.692Z,14.72
2018-04-10T22:29:45.313Z,14.67
2018-04-10T22:32:12.836Z,14.66
2018-04-10T22:34:40.365Z,14.67
2018-04-10T22:37:07.869Z,14.71
2018-04-10T22:39:35.340Z,14.67
2018-04-10T22:42:02.816Z,14.63
2018-04-10T22:44:30.297Z,14.60
2018-04-10T22:46:57.833Z,14.59
2018-04-10T22:49:25.298Z,14.59
2018-04-10T22:51:52.762Z,14.59
2018-04-10T22:54:25.180Z,14.61
2018-04-10T22:56:52.693Z,14.63
2018-04-10T22:59:20.159Z,14.69
2018-04-10T23:01:47.649Z,14.76
2018-04-10T23:04:15.112Z,14.84
2018-04-10T23:06:42.582Z,14.88
2018-04-10T23:09:10.077Z,14.90
2018-04-10T23:11:37.555Z,14.93
2018-04-10T23:14:05.055Z,14.92
2018-04-10T23:16:32.544Z,14.90
2018-04-10T23:19:00.032Z,14.89
2018-04-10T23:21:27.511Z,14.89
2018-04-10T23:23:55.006Z,14.91
2018-04-10T23:26:22.464Z,14.90
2018-04-10T23:28:49.937Z,14.90
2018-04-10T23:31:17.423Z,14.91
2018-04-10T23:33:44.893Z,14.97
2018-04-10T23:36:12.453Z,15.05
2018-04-10T23:38:39.956Z,15.09
2018-04-10T23:41:07.440Z,15.15
2018-04-10T23:43:34.905Z,15.13
2018-04-10T23:46:02.390Z,15.13
2018-04-10T23:48:29.855Z,15.17
2018-04-10T23:50:57.305Z,15.18
2018-04-10T23:53:24.784Z,15.18
2018-04-10T23:55:52.243Z,15.17
2018-04-10T23:58:19.708Z,15.20
